Startpagina
METAR-TAF:

METAR-TAF

Vliegvelden :

Wittmund, Duitsland

breedte: 53-33N, lengte: 007-40E, hoogte: 8 m

Actueel weer

Dit bericht is 24 minuten geleden gemaakt, om 08:20 UTC
Wind 9 kt uit het zuidzuidwesten
Temperatuur 11°C
Vochtigheid 82%
Druk 1021 hPa
Zicht 10 km of meer
Gebroken wolken op 8500 ft

METAR: ETNT 180820Z 21009KT 9999 BKN085 11/08 Q1021 BLU BLU

Tijdstip: 10:44 (08:44 UTC)

Verwachting

Dit bericht is 1 uur en het 42 minuten geleden gemaakt, om 07:02 UTC
Verwachting geldig van 18 om 08 UTC tot 18 om 17 UTC
Wind 7 kt uit het zuidzuidwesten
Zicht 10 km of meer
Verspreide wolken op 6000 ft
Gebroken wolken op 8000 ft

TAF: ETNT 180702Z 1808/1817 21007KT 9999 NSW SCT060 BKN080 BY ETGL

Waarnemingen en weersverwachtingen van meer dan 4000 vliegvelden (METAR en TAF).

De beschikbare stations zijn de gele en rode punten op de kaart.

Ga met uw muis naar het station om de naam te zien.

Klik dan om waarnemingen en weersverwachtingen te zien.

kaart wijzigen: klik op de groene knoppen met een zwart kruis om in te zoomen, op de groene knop met een streepje om uit te zoomen of op de groene pijlen voor aangrenzende kaarten.


METAR-TAF: